Time;durP1;ratioP1;P1;durP2;ratioP2;P2;SDS_P1;SDS_P2;PMS_P1;PMS_P2;Temp;Humidity;BMP_temperature;BMP_pressure;BME280_temperature;BME280_humidity;BME280_pressure;Samples;Min_cycle;Max_cycle;Signal;HPM_P1;HPM_P2
2022/12/20 00:01:27;;;;;;;9.93;6.67;;;7.30;99.90;;;;;;5063362;28;20195;-45
2022/12/20 00:03:56;;;;;;;11.37;7.10;;;7.30;99.90;;;;;;5064727;28;20238;-45
2022/12/20 00:06:24;;;;;;;9.07;6.67;;;7.30;99.90;;;;;;5060719;28;20214;-47
2022/12/20 00:08:54;;;;;;;9.90;6.70;;;7.30;99.90;;;;;;5050761;28;20951;-49
2022/12/20 00:11:23;;;;;;;7.80;6.90;;;7.30;99.90;;;;;;5059330;28;20797;-45
2022/12/20 00:13:50;;;;;;;7.57;6.60;;;7.40;99.90;;;;;;5039716;28;20227;-45
2022/12/20 00:16:19;;;;;;;8.17;6.27;;;7.40;99.90;;;;;;5063514;28;20256;-48
2022/12/20 00:18:46;;;;;;;9.40;6.50;;;7.40;99.90;;;;;;5060367;28;20193;-46
2022/12/20 00:21:14;;;;;;;7.27;6.03;;;7.50;99.90;;;;;;5064639;28;20248;-50
2022/12/20 00:23:41;;;;;;;12.97;7.43;;;7.50;99.90;;;;;;5044855;28;20264;-47
2022/12/20 00:26:11;;;;;;;6.57;5.83;;;7.50;99.90;;;;;;5065123;28;20202;-47
2022/12/20 00:28:40;;;;;;;10.63;6.57;;;7.60;99.90;;;;;;5045795;28;20202;-45
2022/12/20 00:31:09;;;;;;;8.20;6.40;;;7.60;99.90;;;;;;5065460;28;20222;-44
2022/12/20 00:33:38;;;;;;;7.37;6.20;;;7.60;99.90;;;;;;5059168;28;20214;-43
2022/12/20 00:36:07;;;;;;;7.87;5.93;;;7.60;99.90;;;;;;5065044;28;20205;-42
2022/12/20 00:38:34;;;;;;;9.67;6.63;;;7.70;99.90;;;;;;5044856;28;20307;-44
2022/12/20 00:41:03;;;;;;;8.13;6.50;;;7.70;99.90;;;;;;5051803;28;20219;-43
2022/12/20 00:43:31;;;;;;;10.00;6.77;;;7.70;99.90;;;;;;5061123;28;20215;-55
2022/12/20 00:46:00;;;;;;;10.57;6.73;;;7.70;99.90;;;;;;5047055;28;20229;-42
2022/12/20 00:48:28;;;;;;;7.27;5.87;;;7.70;99.90;;;;;;5056878;28;20206;-54
2022/12/20 00:50:59;;;;;;;8.97;6.03;;;7.70;99.90;;;;;;5062933;28;20624;-41
2022/12/20 00:53:26;;;;;;;7.13;6.20;;;7.70;99.90;;;;;;5056202;28;20281;-57
2022/12/20 00:55:53;;;;;;;10.33;6.27;;;7.70;99.90;;;;;;5053013;28;20207;-41
2022/12/20 00:58:20;;;;;;;9.37;6.23;;;7.70;99.90;;;;;;5063131;28;20614;-55
2022/12/20 01:00:47;;;;;;;9.27;6.67;;;7.70;99.90;;;;;;5047219;28;20229;-47
2022/12/20 01:03:15;;;;;;;6.47;5.43;;;7.70;99.90;;;;;;5055296;28;20241;-54
2022/12/20 01:05:51;;;;;;;7.63;6.37;;;7.70;99.90;;;;;;5060408;28;20202;-49
2022/12/20 01:08:19;;;;;;;8.83;5.90;;;7.70;99.90;;;;;;5063073;28;20194;-53
2022/12/20 01:10:46;;;;;;;8.90;6.10;;;7.60;99.90;;;;;;5048267;28;20191;-46
2022/12/20 01:13:13;;;;;;;10.03;6.37;;;7.60;99.90;;;;;;5073048;28;20231;-54
2022/12/20 01:15:40;;;;;;;9.63;6.83;;;7.60;99.90;;;;;;5041556;28;20515;-43
2022/12/20 01:18:07;;;;;;;7.70;6.27;;;7.50;99.90;;;;;;5056595;28;20202;-44
2022/12/20 01:20:35;;;;;;;7.80;6.20;;;7.50;99.90;;;;;;5059942;28;20839;-41
2022/12/20 01:23:01;;;;;;;7.83;6.03;;;7.50;99.90;;;;;;5062866;28;20629;-44
2022/12/20 01:25:29;;;;;;;8.90;6.70;;;7.50;99.90;;;;;;5044385;28;20252;-55
2022/12/20 01:27:55;;;;;;;7.83;6.10;;;7.50;99.90;;;;;;5062607;28;20260;-48
2022/12/20 01:30:22;;;;;;;9.83;6.67;;;7.50;99.90;;;;;;5061872;28;20205;-53
2022/12/20 01:32:49;;;;;;;9.93;6.23;;;7.60;99.90;;;;;;5045711;28;20217;-47
2022/12/20 01:35:16;;;;;;;8.33;6.17;;;7.60;99.90;;;;;;5062741;28;20195;-53
2022/12/20 01:37:44;;;;;;;6.70;5.93;;;7.60;99.90;;;;;;5061399;28;20252;-43
2022/12/20 01:40:12;;;;;;;7.63;6.13;;;7.60;99.90;;;;;;5062577;28;20214;-47
2022/12/20 01:42:38;;;;;;;10.13;6.20;;;7.60;99.90;;;;;;5050084;28;20214;-44
2022/12/20 01:45:12;;;;;;;8.40;6.27;;;7.60;99.90;;;;;;5062005;28;20236;-45
2022/12/20 01:47:39;;;;;;;8.67;6.70;;;7.60;99.90;;;;;;5038685;28;20207;-41
2022/12/20 01:50:08;;;;;;;10.10;6.30;;;7.60;99.90;;;;;;5062240;28;20554;-43
2022/12/20 01:52:38;;;;;;;8.23;5.90;;;7.60;99.90;;;;;;5057068;28;20740;-41
2022/12/20 01:55:12;;;;;;;6.20;5.60;;;7.60;99.90;;;;;;5063766;28;20275;-41
2022/12/20 01:57:44;;;;;;;6.60;5.90;;;7.70;99.90;;;;;;5041360;28;20202;-46
2022/12/20 02:00:13;;;;;;;8.03;6.43;;;7.70;99.90;;;;;;5062005;28;20739;-52
2022/12/20 02:02:41;;;;;;;7.03;6.03;;;7.70;99.90;;;;;;5045716;28;20227;-43
2022/12/20 02:05:09;;;;;;;8.13;6.43;;;7.80;99.90;;;;;;5063605;28;20198;-45
2022/12/20 02:07:37;;;;;;;6.83;5.83;;;7.90;99.90;;;;;;5059702;28;20206;-48
2022/12/20 02:10:06;;;;;;;9.83;5.87;;;7.90;99.90;;;;;;5063439;28;20213;-41
2022/12/20 02:12:39;;;;;;;11.07;6.00;;;7.90;99.90;;;;;;5047490;28;20218;-47
2022/12/20 02:15:35;;;;;;;7.63;6.07;;;7.90;99.90;;;;;;5060930;28;20194;-43
2022/12/20 02:18:16;;;;;;;9.83;5.73;;;7.90;99.90;;;;;;5028713;28;20207;-48
2022/12/20 02:21:00;;;;;;;7.53;5.67;;;8.00;99.90;;;;;;5058864;28;20947;-43
2022/12/20 02:23:44;;;;;;;7.93;5.90;;;8.00;99.90;;;;;;5052122;28;20309;-53
2022/12/20 02:26:29;;;;;;;8.03;5.87;;;8.00;99.90;;;;;;5061206;28;20286;-49
2022/12/20 02:29:12;;;;;;;7.47;5.50;;;8.00;99.90;;;;;;5060951;28;20279;-48
2022/12/20 02:31:51;;;;;;;8.53;5.77;;;8.00;99.90;;;;;;5057440;28;20218;-45
2022/12/20 02:34:20;;;;;;;6.83;5.77;;;8.00;99.90;;;;;;5038194;28;20228;-41
2022/12/20 02:36:47;;;;;;;8.13;6.13;;;8.10;99.90;;;;;;5062172;28;20190;-42
2022/12/20 02:39:16;;;;;;;6.00;5.40;;;8.10;99.90;;;;;;5052575;28;20740;-51
2022/12/20 02:41:47;;;;;;;10.73;5.87;;;8.10;99.90;;;;;;5055345;28;20528;-44
2022/12/20 02:47:05;;;;;;;9.27;5.47;;;8.20;99.90;;;;;;5062255;28;20190;-55
2022/12/20 02:49:37;;;;;;;7.37;5.83;;;8.20;99.90;;;;;;5045858;28;22427;-46
2022/12/20 02:52:06;;;;;;;5.63;5.10;;;8.20;99.90;;;;;;5059474;28;20667;-53
2022/12/20 02:54:33;;;;;;;6.23;5.63;;;8.20;99.90;;;;;;5056890;28;22029;-43
2022/12/20 02:57:05;;;;;;;6.77;5.17;;;8.30;99.90;;;;;;5059651;28;20198;-50
2022/12/20 02:59:37;;;;;;;8.40;5.60;;;8.30;99.90;;;;;;5053812;28;20937;-45
2022/12/20 03:02:07;;;;;;;8.83;5.50;;;8.30;99.90;;;;;;5058455;28;20225;-54
2022/12/20 03:04:54;;;;;;;8.93;5.47;;;8.30;99.90;;;;;;5051295;28;20221;-41
2022/12/20 03:07:22;;;;;;;6.70;5.60;;;8.30;99.90;;;;;;5062033;28;20195;-44
2022/12/20 03:09:49;;;;;;;5.70;5.10;;;8.30;99.90;;;;;;5060372;28;20209;-46
2022/12/20 03:12:16;;;;;;;7.03;5.43;;;8.40;99.90;;;;;;5056132;28;20226;-42
2022/12/20 03:14:43;;;;;;;7.20;5.17;;;8.40;99.90;;;;;;5057176;28;20259;-41
2022/12/20 03:17:13;;;;;;;6.90;5.20;;;8.40;99.90;;;;;;5061650;28;20672;-52
2022/12/20 03:19:40;;;;;;;6.93;5.37;;;8.50;99.90;;;;;;5064950;28;20203;-45
2022/12/20 03:22:07;;;;;;;6.03;5.07;;;8.50;99.90;;;;;;5044540;28;20652;-54
2022/12/20 03:24:34;;;;;;;6.13;5.33;;;8.60;99.90;;;;;;5064063;28;20203;-47
2022/12/20 03:27:06;;;;;;;8.43;6.33;;;8.60;99.90;;;;;;5048381;28;20207;-51
2022/12/20 03:29:32;;;;;;;6.07;5.03;;;8.60;99.90;;;;;;5062353;28;20222;-43
2022/12/20 03:32:00;;;;;;;6.27;5.43;;;8.70;99.90;;;;;;5050225;28;20255;-51
2022/12/20 03:34:28;;;;;;;6.83;4.73;;;8.70;99.90;;;;;;5061479;28;20193;-43
2022/12/20 03:36:55;;;;;;;6.80;5.20;;;8.70;99.90;;;;;;5049422;28;20223;-50
2022/12/20 03:39:22;;;;;;;6.50;5.10;;;8.70;99.90;;;;;;5061505;28;20190;-41
2022/12/20 03:41:50;;;;;;;5.70;5.07;;;8.70;99.90;;;;;;5059590;28;20245;-41
2022/12/20 03:44:18;;;;;;;5.33;4.83;;;8.70;99.90;;;;;;5056248;28;20226;-41
2022/12/20 03:46:45;;;;;;;5.67;4.90;;;8.70;99.90;;;;;;5053239;28;20209;-53
2022/12/20 03:49:12;;;;;;;5.80;5.20;;;8.70;99.90;;;;;;5055929;28;20211;-48
2022/12/20 03:51:46;;;;;;;6.33;5.20;;;8.70;99.90;;;;;;5048883;28;20692;-53
2022/12/20 03:54:13;;;;;;;5.27;4.77;;;8.70;99.90;;;;;;5063025;28;20233;-44
2022/12/20 03:57:03;;;;;;;6.27;4.77;;;8.80;99.90;;;;;;5057135;28;20217;-41
2022/12/20 03:59:30;;;;;;;4.80;4.40;;;8.80;99.90;;;;;;5064917;28;20206;-44
2022/12/20 04:01:57;;;;;;;6.27;5.30;;;8.90;99.90;;;;;;5051824;28;20203;-45
2022/12/20 04:04:27;;;;;;;7.57;5.40;;;8.90;99.90;;;;;;5064683;28;20199;-41
2022/12/20 04:06:55;;;;;;;6.03;4.90;;;9.00;99.90;;;;;;5060769;28;20312;-45
2022/12/20 04:09:22;;;;;;;7.60;4.57;;;9.00;99.90;;;;;;5049988;28;20211;-42
2022/12/20 04:11:55;;;;;;;5.57;4.93;;;9.00;99.90;;;;;;5059367;28;20265;-48
2022/12/20 04:14:23;;;;;;;7.67;5.00;;;9.00;99.90;;;;;;5059133;28;20564;-43
2022/12/20 04:16:50;;;;;;;5.67;4.90;;;9.00;99.90;;;;;;5050869;28;20233;-52
2022/12/20 04:19:19;;;;;;;8.13;4.87;;;9.00;99.90;;;;;;5058998;28;20194;-45
2022/12/20 04:21:47;;;;;;;6.23;4.70;;;9.10;99.90;;;;;;5060345;28;20295;-52
2022/12/20 04:24:17;;;;;;;6.73;4.97;;;9.10;99.90;;;;;;5049639;28;20213;-48
2022/12/20 04:27:10;;;;;;;7.10;4.40;;;9.10;99.90;;;;;;5057718;28;20274;-45
2022/12/20 04:29:37;;;;;;;7.07;4.43;;;9.10;99.90;;;;;;5050914;28;20207;-52
2022/12/20 04:32:07;;;;;;;6.07;4.37;;;9.10;99.90;;;;;;5062137;28;20280;-44
2022/12/20 04:34:34;;;;;;;7.17;5.07;;;9.20;99.90;;;;;;5053212;28;20195;-53
2022/12/20 04:37:01;;;;;;;6.00;4.97;;;9.10;99.90;;;;;;5049743;28;20282;-45
2022/12/20 04:39:39;;;;;;;9.50;5.97;;;9.20;99.90;;;;;;5054820;28;20665;-54
2022/12/20 04:42:22;;;;;;;5.73;4.43;;;9.20;99.90;;;;;;5060889;28;20218;-50
2022/12/20 04:44:50;;;;;;;6.73;5.63;;;9.20;99.90;;;;;;5054538;28;20784;-53
2022/12/20 04:47:22;;;;;;;7.07;6.00;;;9.20;99.90;;;;;;5064064;28;20206;-48
2022/12/20 04:49:51;;;;;;;7.13;5.40;;;9.20;99.90;;;;;;5044517;28;20821;-49
2022/12/20 04:55:04;;;;;;;5.27;4.30;;;9.10;99.90;;;;;;5047742;28;20370;-43
2022/12/20 04:57:33;;;;;;;7.13;4.23;;;9.20;99.90;;;;;;5063150;28;20194;-53
2022/12/20 05:00:01;;;;;;;6.57;4.30;;;9.20;99.90;;;;;;5046135;28;20206;-47
2022/12/20 05:02:28;;;;;;;7.50;5.40;;;9.10;99.90;;;;;;5044383;28;20222;-53
2022/12/20 05:05:02;;;;;;;7.37;4.93;;;9.20;99.90;;;;;;5048780;28;20248;-53
2022/12/20 05:07:35;;;;;;;7.43;5.37;;;9.20;99.90;;;;;;5054940;28;20534;-42
2022/12/20 05:10:04;;;;;;;5.17;4.67;;;9.20;99.90;;;;;;5051990;28;20211;-54
2022/12/20 05:12:31;;;;;;;6.77;5.00;;;9.20;99.90;;;;;;5053611;28;20214;-47
2022/12/20 05:15:00;;;;;;;7.80;5.00;;;9.10;99.90;;;;;;5061555;28;20248;-53
2022/12/20 05:17:26;;;;;;;5.83;5.33;;;9.10;99.90;;;;;;5049162;28;20210;-42
2022/12/20 05:19:53;;;;;;;6.50;5.13;;;9.10;99.90;;;;;;5052355;28;20583;-50
2022/12/20 05:27:59;;;;;;;5.17;4.63;;;9.00;99.90;;;;;;5063519;28;20194;-52
2022/12/20 05:30:28;;;;;;;8.17;5.23;;;9.00;99.90;;;;;;5060244;28;20903;-47
2022/12/20 05:32:55;;;;;;;6.87;5.30;;;9.00;99.90;;;;;;5056496;28;20233;-42
2022/12/20 05:35:22;;;;;;;7.73;5.10;;;8.90;99.90;;;;;;5047261;28;20965;-45
2022/12/20 05:37:56;;;;;;;14.13;7.57;;;8.90;99.90;;;;;;5050803;28;20855;-42
2022/12/20 05:40:24;;;;;;;7.40;5.87;;;8.90;99.90;;;;;;5044792;28;20222;-55
2022/12/20 05:42:51;;;;;;;9.97;7.30;;;8.90;99.90;;;;;;5049414;28;20225;-44
2022/12/20 05:45:19;;;;;;;8.27;5.77;;;8.90;99.90;;;;;;5048766;28;20230;-42
2022/12/20 05:47:52;;;;;;;6.47;5.17;;;8.90;99.90;;;;;;5052392;28;20925;-50
2022/12/20 05:50:19;;;;;;;7.23;5.60;;;8.90;99.90;;;;;;5051260;28;20567;-46
2022/12/20 05:53:05;;;;;;;9.30;5.10;;;8.80;99.90;;;;;;5057364;28;20233;-47
2022/12/20 05:55:34;;;;;;;8.83;5.73;;;8.80;99.90;;;;;;5041785;28;20677;-55
2022/12/20 05:58:01;;;;;;;7.67;5.00;;;8.90;99.90;;;;;;5040280;28;20203;-44
2022/12/20 06:00:46;;;;;;;5.47;4.90;;;8.90;99.90;;;;;;5045399;28;20940;-45
2022/12/20 06:03:14;;;;;;;10.93;7.47;;;8.90;99.90;;;;;;5047700;28;20297;-55
2022/12/20 06:05:42;;;;;;;10.07;5.77;;;8.90;99.90;;;;;;5046453;28;20210;-48
2022/12/20 06:08:13;;;;;;;5.47;4.60;;;8.90;99.90;;;;;;5040397;28;20225;-50
2022/12/20 06:10:41;;;;;;;6.17;5.30;;;8.90;99.90;;;;;;5051527;28;20572;-52
2022/12/20 06:13:09;;;;;;;6.60;5.33;;;8.90;99.90;;;;;;5044679;28;20232;-49
2022/12/20 06:15:38;;;;;;;7.83;4.77;;;9.00;99.90;;;;;;5046030;28;20201;-51
2022/12/20 06:18:05;;;;;;;9.17;6.00;;;9.00;99.90;;;;;;5055961;28;20198;-44
2022/12/20 06:20:32;;;;;;;8.27;5.03;;;9.00;99.90;;;;;;5051006;28;20289;-53
2022/12/20 06:23:01;;;;;;;7.33;5.77;;;9.00;99.90;;;;;;5048335;28;20319;-44
2022/12/20 06:25:33;;;;;;;7.43;4.67;;;9.00;99.90;;;;;;5048421;28;20681;-52
2022/12/20 06:28:01;;;;;;;7.27;4.93;;;9.00;99.90;;;;;;5045773;28;21018;-43
2022/12/20 06:30:28;;;;;;;6.53;5.23;;;9.00;99.90;;;;;;5053299;28;20198;-52
2022/12/20 06:33:05;;;;;;;7.47;5.73;;;9.00;99.90;;;;;;5059855;28;20254;-42
2022/12/20 06:35:32;;;;;;;9.97;6.20;;;9.10;99.90;;;;;;5050374;28;20206;-54
2022/12/20 06:37:59;;;;;;;11.30;5.43;;;9.10;99.90;;;;;;5044550;28;20206;-46
2022/12/20 06:40:30;;;;;;;8.50;5.67;;;9.10;99.90;;;;;;5054389;28;20194;-53
2022/12/20 06:43:01;;;;;;;11.17;5.63;;;9.10;99.90;;;;;;5036487;28;20451;-47
2022/12/20 06:45:29;;;;;;;9.00;5.00;;;9.10;99.90;;;;;;5052612;28;20206;-55
2022/12/20 06:47:57;;;;;;;9.63;5.60;;;9.20;99.90;;;;;;5053714;28;20287;-49
2022/12/20 06:50:25;;;;;;;9.63;6.50;;;9.20;99.90;;;;;;5046669;28;20792;-45
2022/12/20 06:52:52;;;;;;;6.30;5.10;;;9.20;99.90;;;;;;5042270;28;20998;-47
2022/12/20 06:55:19;;;;;;;7.30;5.27;;;9.20;99.90;;;;;;5057726;28;20190;-44
2022/12/20 06:57:46;;;;;;;6.43;4.90;;;9.20;99.90;;;;;;5044613;28;20293;-44
2022/12/20 07:00:17;;;;;;;11.83;7.60;;;9.30;99.90;;;;;;5035242;28;20207;-45
2022/12/20 07:02:44;;;;;;;5.40;4.53;;;9.30;99.90;;;;;;5047035;28;20226;-50
2022/12/20 07:05:10;;;;;;;8.10;5.37;;;9.30;99.90;;;;;;5045642;28;20194;-44
2022/12/20 07:07:37;;;;;;;6.53;5.00;;;9.30;99.90;;;;;;5058070;28;20292;-47
2022/12/20 07:10:05;;;;;;;8.33;5.73;;;9.30;99.90;;;;;;5050463;28;20213;-47
2022/12/20 07:12:32;;;;;;;6.40;5.17;;;9.40;99.90;;;;;;5052464;28;20462;-44
2022/12/20 07:14:59;;;;;;;6.27;5.13;;;9.40;99.90;;;;;;5047997;28;20686;-46
2022/12/20 07:17:27;;;;;;;9.17;6.50;;;9.50;99.90;;;;;;5052453;28;20317;-43
2022/12/20 07:19:54;;;;;;;12.87;6.40;;;9.50;99.90;;;;;;5062149;28;20657;-45
2022/12/20 07:22:21;;;;;;;7.80;5.83;;;9.50;99.90;;;;;;5052825;28;20218;-43
2022/12/20 07:24:49;;;;;;;8.07;5.40;;;9.50;99.90;;;;;;5049855;28;20203;-46
2022/12/20 07:27:16;;;;;;;13.63;7.67;;;9.50;99.90;;;;;;5047256;28;20207;-48
2022/12/20 07:29:44;;;;;;;8.53;5.53;;;9.50;99.90;;;;;;5038551;28;20194;-44
2022/12/20 07:32:12;;;;;;;9.20;6.30;;;9.50;99.90;;;;;;5031434;28;20925;-48
2022/12/20 07:34:40;;;;;;;8.83;5.97;;;9.50;99.90;;;;;;5055262;28;20203;-46
2022/12/20 07:37:08;;;;;;;21.77;9.23;;;9.40;99.90;;;;;;5057071;28;20199;-48
2022/12/20 07:39:35;;;;;;;9.30;6.30;;;9.40;99.90;;;;;;5048736;28;20195;-47
2022/12/20 07:42:02;;;;;;;5.57;4.57;;;9.40;99.90;;;;;;5045941;28;20241;-47
2022/12/20 07:44:37;;;;;;;11.07;6.87;;;9.40;99.90;;;;;;5047862;28;20206;-44
2022/12/20 07:47:04;;;;;;;9.33;6.13;;;9.40;99.90;;;;;;5046942;28;20195;-46
2022/12/20 07:49:30;;;;;;;12.23;7.40;;;9.40;99.90;;;;;;5059856;28;20199;-44
2022/12/20 07:52:03;;;;;;;10.70;6.07;;;9.40;99.90;;;;;;5054652;28;20190;-45
2022/12/20 07:54:33;;;;;;;10.73;6.90;;;9.40;99.90;;;;;;5058706;28;20202;-47
2022/12/20 07:57:03;;;;;;;6.67;6.07;;;9.50;99.90;;;;;;5050469;28;20376;-43
2022/12/20 07:59:36;;;;;;;8.17;5.60;;;9.40;99.90;;;;;;5058021;28;20226;-49
2022/12/20 08:02:03;;;;;;;10.07;6.60;;;9.40;99.90;;;;;;5028675;28;20697;-43
2022/12/20 08:04:30;;;;;;;8.20;5.97;;;9.50;99.90;;;;;;5044538;28;20206;-46
2022/12/20 08:07:01;;;;;;;8.07;6.20;;;9.50;99.90;;;;;;5042297;28;20592;-46
2022/12/20 08:09:31;;;;;;;7.27;6.13;;;9.50;99.90;;;;;;5051639;28;20196;-46
2022/12/20 08:11:58;;;;;;;6.23;5.63;;;9.50;99.90;;;;;;5051751;28;20203;-43
2022/12/20 08:14:26;;;;;;;7.50;6.10;;;9.50;99.90;;;;;;5053462;28;20207;-45
2022/12/20 08:16:52;;;;;;;7.13;5.70;;;9.50;99.90;;;;;;5055152;28;20702;-43
2022/12/20 08:19:19;;;;;;;10.60;7.13;;;9.50;99.90;;;;;;5038410;28;20214;-45
2022/12/20 08:21:46;;;;;;;10.47;6.70;;;9.50;99.90;;;;;;5046932;28;20223;-46
2022/12/20 08:24:16;;;;;;;9.67;6.33;;;9.50;99.90;;;;;;5057533;28;20308;-47
2022/12/20 08:26:43;;;;;;;10.93;6.50;;;9.60;99.90;;;;;;5047544;28;20202;-48
2022/12/20 08:29:10;;;;;;;5.83;5.23;;;9.60;99.90;;;;;;5064046;28;20248;-46
2022/12/20 08:31:37;;;;;;;8.50;5.73;;;9.60;99.90;;;;;;5048411;28;20190;-45
2022/12/20 08:34:04;;;;;;;5.73;5.20;;;9.60;99.90;;;;;;5049030;28;20754;-44
2022/12/20 08:36:31;;;;;;;10.03;6.40;;;9.60;99.90;;;;;;5048333;28;20607;-49
2022/12/20 08:38:58;;;;;;;6.57;5.60;;;9.60;99.90;;;;;;5054452;28;20199;-45
2022/12/20 08:41:26;;;;;;;7.80;5.93;;;9.70;99.90;;;;;;5054423;28;20195;-49
2022/12/20 08:43:53;;;;;;;8.50;6.77;;;9.70;99.90;;;;;;5058362;28;20254;-45
2022/12/20 08:46:19;;;;;;;6.10;5.13;;;9.80;99.90;;;;;;5055236;28;20217;-46
2022/12/20 08:48:46;;;;;;;7.33;5.70;;;9.80;99.90;;;;;;5045016;28;20213;-45
2022/12/20 08:51:13;;;;;;;7.00;4.53;;;9.90;99.90;;;;;;5048300;28;20593;-46
2022/12/20 08:53:39;;;;;;;10.87;5.90;;;9.90;99.90;;;;;;5046207;28;20337;-43
2022/12/20 08:56:07;;;;;;;8.17;5.50;;;9.90;99.90;;;;;;5056051;28;20207;-46
2022/12/20 08:58:37;;;;;;;6.67;4.50;;;9.90;99.90;;;;;;5042145;28;20207;-49
2022/12/20 09:01:05;;;;;;;5.67;4.70;;;10.00;99.90;;;;;;5053044;28;20201;-45
2022/12/20 09:03:34;;;;;;;5.93;4.50;;;10.00;99.90;;;;;;5062616;28;20222;-42
2022/12/20 09:06:01;;;;;;;5.57;4.40;;;10.00;99.90;;;;;;5038738;28;20210;-46
2022/12/20 09:08:28;;;;;;;7.07;4.97;;;10.00;99.90;;;;;;5057325;28;20274;-44
2022/12/20 09:11:03;;;;;;;7.90;5.10;;;10.10;99.90;;;;;;5052998;28;20268;-47
2022/12/20 09:13:29;;;;;;;5.20;4.63;;;10.20;99.90;;;;;;5052312;28;20222;-42
2022/12/20 09:16:00;;;;;;;6.93;5.13;;;10.20;99.90;;;;;;5051597;28;20467;-46
2022/12/20 09:18:27;;;;;;;7.37;4.03;;;10.10;99.90;;;;;;5059934;28;20291;-46
2022/12/20 09:20:54;;;;;;;5.87;4.70;;;10.20;99.90;;;;;;5041348;28;20222;-42
2022/12/20 09:23:21;;;;;;;7.70;4.57;;;10.20;99.90;;;;;;5046031;28;20230;-50
2022/12/20 09:25:48;;;;;;;7.17;5.13;;;10.20;99.90;;;;;;5052531;28;20211;-46
2022/12/20 09:28:15;;;;;;;8.20;5.67;;;10.20;99.90;;;;;;5037702;28;20203;-45
2022/12/20 09:30:42;;;;;;;9.40;4.93;;;10.30;99.90;;;;;;5058404;28;20679;-46
2022/12/20 09:33:10;;;;;;;5.97;4.63;;;10.30;99.90;;;;;;5047087;28;20210;-46
2022/12/20 09:35:36;;;;;;;5.93;4.73;;;10.30;99.90;;;;;;5046217;28;20726;-46
2022/12/20 09:38:04;;;;;;;7.80;5.27;;;10.30;99.90;;;;;;5045923;28;20213;-47
2022/12/20 09:40:32;;;;;;;6.43;5.10;;;10.30;99.90;;;;;;5059858;28;20198;-43
2022/12/20 09:42:59;;;;;;;9.27;5.57;;;10.30;99.90;;;;;;5048584;28;20229;-46
2022/12/20 09:45:30;;;;;;;9.97;5.70;;;10.40;99.90;;;;;;5049059;28;20290;-51
2022/12/20 09:47:57;;;;;;;6.33;5.50;;;10.40;99.90;;;;;;5053117;28;20207;-47
2022/12/20 09:50:43;;;;;;;8.90;6.30;;;10.40;99.90;;;;;;5048238;28;20207;-48
2022/12/20 09:53:22;;;;;;;6.17;4.93;;;10.50;99.90;;;;;;5046974;28;20226;-45
2022/12/20 09:55:54;;;;;;;7.23;5.60;;;10.40;99.90;;;;;;5054819;28;20252;-46
2022/12/20 09:58:32;;;;;;;7.83;5.03;;;10.50;99.90;;;;;;5040249;28;20232;-45
2022/12/20 10:01:06;;;;;;;5.83;5.00;;;10.40;99.90;;;;;;5044145;28;20212;-45
2022/12/20 10:03:35;;;;;;;6.77;5.20;;;10.40;99.90;;;;;;5045523;28;20295;-46
2022/12/20 10:06:14;;;;;;;8.20;5.43;;;10.40;99.90;;;;;;5045551;28;21207;-49
2022/12/20 10:08:45;;;;;;;14.73;6.87;;;10.40;99.90;;;;;;5052341;28;20542;-46
2022/12/20 10:11:28;;;;;;;11.20;7.47;;;10.30;99.90;;;;;;5050664;28;20618;-47
2022/12/20 10:14:04;;;;;;;8.93;6.10;;;10.30;99.90;;;;;;5055041;28;20236;-44
2022/12/20 10:16:42;;;;;;;7.07;5.90;;;10.30;99.90;;;;;;5043334;28;20988;-48
2022/12/20 10:19:27;;;;;;;6.73;5.93;;;10.20;99.90;;;;;;5045865;28;20206;-44
2022/12/20 10:22:03;;;;;;;8.07;6.10;;;10.20;99.90;;;;;;5046835;28;20214;-46
2022/12/20 10:24:32;;;;;;;13.40;8.50;;;10.10;99.90;;;;;;5048484;28;20317;-45
2022/12/20 10:27:07;;;;;;;9.03;6.30;;;10.10;99.90;;;;;;5049955;28;20470;-47
2022/12/20 10:29:34;;;;;;;7.93;5.73;;;10.10;99.90;;;;;;5053280;28;20198;-46
2022/12/20 10:32:02;;;;;;;11.93;6.97;;;10.20;99.90;;;;;;5048324;28;20207;-49
2022/12/20 10:34:29;;;;;;;8.13;5.80;;;10.10;99.90;;;;;;5042806;28;20510;-46
2022/12/20 10:39:51;;;;;;;8.33;6.53;;;10.20;99.90;;;;;;5097924;27;20585;-43
2022/12/20 10:42:34;;;;;;;11.57;6.97;;;10.20;99.90;;;;;;5082901;28;20309;-49
2022/12/20 10:45:02;;;;;;;11.60;6.13;;;10.20;99.90;;;;;;5091930;28;20205;-46
2022/12/20 10:47:37;;;;;;;8.17;6.70;;;10.20;99.90;;;;;;5088615;28;21017;-45
2022/12/20 10:50:17;;;;;;;7.63;5.67;;;10.30;99.90;;;;;;5090453;28;20587;-45
2022/12/20 10:52:46;;;;;;;8.63;5.87;;;10.30;99.90;;;;;;5080062;28;20225;-44
2022/12/20 10:55:35;;;;;;;8.57;6.03;;;10.40;99.90;;;;;;5085775;28;20190;-46
2022/12/20 10:58:04;;;;;;;6.90;5.60;;;10.50;99.90;;;;;;5082014;28;20214;-46
2022/12/20 11:00:33;;;;;;;7.03;5.40;;;10.50;99.90;;;;;;5085543;27;20189;-46
2022/12/20 11:03:07;;;;;;;10.00;5.83;;;10.50;99.90;;;;;;5084757;28;20237;-48
2022/12/20 11:05:34;;;;;;;7.23;5.50;;;10.60;99.90;;;;;;5081899;28;20197;-44
2022/12/20 11:08:12;;;;;;;7.23;4.97;;;10.60;99.90;;;;;;5073150;28;20214;-44
2022/12/20 11:10:40;;;;;;;7.00;4.27;;;10.60;99.90;;;;;;5082301;28;20998;-47
2022/12/20 11:13:20;;;;;;;7.10;4.63;;;10.70;99.90;;;;;;5081964;28;20221;-46
2022/12/20 11:15:50;;;;;;;5.63;4.07;;;10.80;99.90;;;;;;5080149;28;20251;-42
2022/12/20 11:18:23;;;;;;;4.37;4.03;;;10.90;99.90;;;;;;5082291;28;20217;-46
2022/12/20 11:21:03;;;;;;;6.20;4.43;;;10.90;99.90;;;;;;5096594;28;20196;-46
2022/12/20 11:23:38;;;;;;;4.17;3.70;;;11.00;99.90;;;;;;5072283;27;20317;-45
2022/12/20 11:26:22;;;;;;;5.00;4.50;;;11.10;99.90;;;;;;5086913;28;20619;-45
2022/12/20 11:29:06;;;;;;;5.43;3.80;;;11.10;99.90;;;;;;5078675;28;20278;-43
2022/12/20 11:31:43;;;;;;;7.93;5.40;;;11.10;99.90;;;;;;5090897;28;20193;-49
2022/12/20 11:34:22;;;;;;;3.13;2.90;;;11.20;99.90;;;;;;5077316;28;20236;-47
2022/12/20 11:37:04;;;;;;;7.70;5.70;;;11.20;99.90;;;;;;5091977;28;20228;-46
2022/12/20 11:39:39;;;;;;;5.43;3.40;;;11.30;99.90;;;;;;5069712;28;20276;-44
2022/12/20 11:42:15;;;;;;;4.27;3.60;;;11.30;99.90;;;;;;5090626;28;20284;-49
2022/12/20 11:44:54;;;;;;;7.03;4.27;;;11.40;99.90;;;;;;5079774;28;20850;-47
2022/12/20 11:47:36;;;;;;;4.67;4.27;;;11.40;99.90;;;;;;5071884;28;20916;-45
2022/12/20 11:50:34;;;;;;;4.57;4.17;;;11.40;99.90;;;;;;5075234;28;20575;-45
2022/12/20 11:53:07;;;;;;;4.17;3.43;;;11.50;99.90;;;;;;5068414;28;20217;-45
2022/12/20 11:55:39;;;;;;;7.03;4.97;;;11.50;99.90;;;;;;5070944;28;20192;-45
2022/12/20 11:58:16;;;;;;;6.93;3.83;;;11.50;99.90;;;;;;5075421;28;20222;-48
2022/12/20 12:00:50;;;;;;;4.27;3.70;;;11.50;99.90;;;;;;5073825;28;20259;-48
2022/12/20 12:03:24;;;;;;;4.13;3.73;;;11.50;99.90;;;;;;5056201;28;20271;-45
2022/12/20 12:05:56;;;;;;;4.67;4.00;;;11.50;99.90;;;;;;5065088;28;20294;-47
2022/12/20 12:08:29;;;;;;;4.53;3.90;;;11.50;99.90;;;;;;5056211;28;22985;-47
2022/12/20 12:11:00;;;;;;;5.73;4.50;;;11.50;99.90;;;;;;5079246;28;20224;-48
2022/12/20 12:13:31;;;;;;;4.67;4.10;;;11.50;99.90;;;;;;5074609;28;20229;-53
2022/12/20 12:16:04;;;;;;;6.47;4.70;;;11.40;99.90;;;;;;5075541;28;20202;-48
2022/12/20 12:18:33;;;;;;;5.13;4.13;;;11.40;99.90;;;;;;5065424;28;20889;-49
2022/12/20 12:21:07;;;;;;;4.87;4.07;;;11.40;99.90;;;;;;5078922;28;20208;-48
2022/12/20 12:23:40;;;;;;;5.73;4.20;;;11.40;99.90;;;;;;5056372;28;20336;-48
2022/12/20 12:26:13;;;;;;;8.50;4.67;;;11.40;99.90;;;;;;5076358;28;20225;-43
2022/12/20 12:28:41;;;;;;;5.47;4.47;;;11.40;99.90;;;;;;5075278;28;20190;-51
2022/12/20 12:31:12;;;;;;;7.23;4.43;;;11.30;99.90;;;;;;5070622;28;20221;-43
2022/12/20 12:33:46;;;;;;;7.33;4.40;;;11.30;99.90;;;;;;5068570;28;20375;-49
2022/12/20 12:36:38;;;;;;;6.53;4.00;;;11.20;99.90;;;;;;5070286;28;20278;-43
2022/12/20 12:39:30;;;;;;;5.43;4.03;;;11.20;99.90;;;;;;5064704;28;20210;-42
2022/12/20 12:42:19;;;;;;;4.40;4.00;;;11.00;99.90;;;;;;5077661;28;20198;-40
2022/12/20 12:44:52;;;;;;;6.30;4.70;;;11.00;99.90;;;;;;5077777;28;20225;-46
2022/12/20 12:47:23;;;;;;;7.53;4.83;;;10.90;99.90;;;;;;5074528;28;20301;-42
2022/12/20 12:49:52;;;;;;;5.70;4.40;;;10.80;99.90;;;;;;5066764;28;20206;-46
2022/12/20 12:52:41;;;;;;;4.77;4.37;;;10.70;99.90;;;;;;5069248;28;20276;-42
2022/12/20 12:55:37;;;;;;;5.03;4.30;;;10.70;99.90;;;;;;5059664;28;20251;-42
2022/12/20 12:58:28;;;;;;;7.73;5.63;;;10.60;99.90;;;;;;5075951;28;20229;-43
2022/12/20 13:00:57;;;;;;;4.97;4.47;;;10.60;99.90;;;;;;5073947;28;20212;-50
2022/12/20 13:03:43;;;;;;;5.67;4.40;;;10.60;99.90;;;;;;5067315;28;20233;-45
2022/12/20 13:06:47;;;;;;;7.80;6.00;;;10.50;99.90;;;;;;5063994;28;20206;-40
2022/12/20 13:09:35;;;;;;;8.17;5.33;;;10.50;99.90;;;;;;5062138;28;20201;-40
2022/12/20 13:12:49;;;;;;;7.90;5.17;;;10.40;99.90;;;;;;5059579;28;20229;-42
2022/12/20 13:15:50;;;;;;;8.67;4.90;;;10.30;99.90;;;;;;5076121;28;20194;-44
2022/12/20 13:18:27;;;;;;;8.60;7.10;;;10.30;99.90;;;;;;5065050;28;20209;-53
2022/12/20 13:21:30;;;;;;;4.37;3.93;;;10.30;99.90;;;;;;5064237;28;20212;-53
2022/12/20 13:24:37;;;;;;;5.23;4.60;;;10.20;99.90;;;;;;5060670;28;20225;-52
2022/12/20 13:27:32;;;;;;;7.83;5.27;;;10.20;99.90;;;;;;5052713;28;21194;-43
2022/12/20 13:30:25;;;;;;;9.07;6.10;;;10.20;99.90;;;;;;5076392;28;20198;-46